Time;durP1;ratioP1;P1;durP2;ratioP2;P2;SDS_P1;SDS_P2;PMS_P1;PMS_P2;Temp;Humidity;BMP_temperature;BMP_pressure;BME280_temperature;BME280_humidity;BME280_pressure;Samples;Min_cycle;Max_cycle;Signal;HPM_P1;HPM_P2
2022/05/09 00:02:11;;;;;;;14.73;4.75;;;6.60;99.90;;;;;;5018245;28;20093;-72
2022/05/09 00:04:40;;;;;;;12.98;5.78;;;6.60;99.90;;;;;;5018450;28;20119;-73
2022/05/09 00:07:07;;;;;;;13.20;5.20;;;6.60;99.90;;;;;;5017800;28;20107;-73
2022/05/09 00:09:34;;;;;;;14.00;5.15;;;6.50;99.90;;;;;;5018082;28;20170;-73
2022/05/09 00:12:02;;;;;;;13.60;5.32;;;6.50;99.90;;;;;;5018752;28;20053;-74
2022/05/09 00:14:29;;;;;;;11.80;4.72;;;6.40;99.90;;;;;;5035144;28;20555;-73
2022/05/09 00:16:56;;;;;;;17.70;5.80;;;6.40;99.90;;;;;;5035761;28;20095;-74
2022/05/09 00:19:23;;;;;;;13.20;4.30;;;6.40;99.90;;;;;;5018006;28;20049;-73
2022/05/09 00:21:53;;;;;;;10.88;4.40;;;6.30;99.90;;;;;;5034801;28;20087;-74
2022/05/09 00:24:21;;;;;;;25.35;4.75;;;6.30;99.90;;;;;;5035726;28;20058;-73
2022/05/09 00:26:50;;;;;;;18.73;5.20;;;6.30;99.90;;;;;;5035784;28;20558;-73
2022/05/09 00:29:18;;;;;;;15.80;4.95;;;6.20;99.90;;;;;;5034883;28;20057;-74
2022/05/09 00:31:48;;;;;;;9.95;4.88;;;6.20;99.90;;;;;;5017493;28;20085;-73
2022/05/09 00:34:17;;;;;;;11.15;4.72;;;6.20;99.90;;;;;;5018231;28;20088;-74
2022/05/09 00:36:45;;;;;;;13.07;4.72;;;6.20;99.90;;;;;;5017801;28;20056;-74
2022/05/09 00:39:13;;;;;;;19.80;7.10;;;6.20;99.90;;;;;;5035631;28;20127;-74
2022/05/09 00:41:41;;;;;;;17.80;5.85;;;6.20;99.90;;;;;;5034987;28;20057;-75
2022/05/09 00:44:10;;;;;;;13.90;5.85;;;6.20;99.90;;;;;;5034691;28;20394;-73
2022/05/09 00:46:38;;;;;;;14.52;5.50;;;6.20;99.90;;;;;;5017510;28;20076;-73
2022/05/09 00:49:10;;;;;;;20.08;5.88;;;6.20;99.90;;;;;;5017337;28;20049;-73
2022/05/09 00:51:38;;;;;;;17.77;5.63;;;6.20;99.90;;;;;;5017043;28;20099;-73
2022/05/09 00:54:06;;;;;;;17.70;5.40;;;6.20;99.90;;;;;;5018093;28;20463;-72
2022/05/09 00:56:41;;;;;;;13.88;6.18;;;6.30;99.90;;;;;;5016888;28;20053;-73
2022/05/09 00:59:12;;;;;;;15.20;4.95;;;6.20;99.90;;;;;;5017663;28;20065;-73
2022/05/09 01:01:40;;;;;;;;;;;6.20;99.90;;;;;;5035525;28;20485;-74
2022/05/09 01:04:10;;;;;;;11.73;5.43;;;6.30;99.90;;;;;;5034340;28;19956;-73
2022/05/09 01:06:37;;;;;;;21.05;5.40;;;6.30;99.90;;;;;;5017626;28;20053;-74
2022/05/09 01:09:05;;;;;;;20.35;5.15;;;6.30;99.90;;;;;;5017163;28;20057;-73
2022/05/09 01:11:33;;;;;;;14.82;4.95;;;6.30;99.90;;;;;;5034183;28;20122;-74
2022/05/09 01:14:05;;;;;;;17.85;4.85;;;6.30;99.90;;;;;;5034372;28;20527;-73
2022/05/09 01:16:33;;;;;;;20.30;5.13;;;6.20;99.90;;;;;;5034976;28;20128;-74
2022/05/09 01:19:04;;;;;;;15.52;4.95;;;6.30;99.90;;;;;;5016450;28;20122;-73
2022/05/09 01:21:35;;;;;;;18.70;4.65;;;6.30;99.90;;;;;;5034801;28;20050;-73
2022/05/09 01:24:02;;;;;;;;;;;6.20;99.90;;;;;;5016623;28;20054;-73
2022/05/09 01:26:29;;;;;;;14.48;5.53;;;6.30;99.90;;;;;;5034618;28;19920;-73
2022/05/09 01:29:01;;;;;;;10.98;4.15;;;6.20;99.90;;;;;;5016828;28;20103;-73
2022/05/09 01:31:28;;;;;;;11.95;4.68;;;6.20;99.90;;;;;;5033881;28;20080;-74
2022/05/09 01:33:56;;;;;;;19.17;5.32;;;6.20;99.90;;;;;;5034508;28;20088;-74
2022/05/09 01:36:28;;;;;;;19.33;5.60;;;6.20;99.90;;;;;;5016757;28;20089;-73
2022/05/09 01:39:00;;;;;;;21.17;5.40;;;6.20;99.90;;;;;;5033312;28;20045;-74
2022/05/09 01:41:29;;;;;;;13.77;4.72;;;6.20;99.90;;;;;;5034440;28;20128;-74
2022/05/09 01:43:56;;;;;;;15.70;4.95;;;6.20;99.90;;;;;;5016841;28;20409;-74
2022/05/09 01:46:26;;;;;;;14.48;4.47;;;6.20;99.90;;;;;;5016027;28;20095;-73
2022/05/09 01:51:40;;;;;;;17.33;5.65;;;6.10;99.90;;;;;;5034297;28;20107;-73
2022/05/09 01:54:08;;;;;;;13.38;5.00;;;6.10;99.90;;;;;;5014385;28;20049;-74
2022/05/09 01:56:38;;;;;;;16.05;5.05;;;6.10;99.90;;;;;;5033751;28;20091;-74
2022/05/09 01:59:07;;;;;;;12.37;5.17;;;6.10;99.90;;;;;;5016628;28;20053;-74
2022/05/09 02:01:38;;;;;;;9.77;4.03;;;6.10;99.90;;;;;;5016099;28;20095;-72
2022/05/09 02:04:06;;;;;;;11.05;5.65;;;6.00;99.90;;;;;;5034191;28;20115;-74
2022/05/09 02:06:33;;;;;;;10.52;3.65;;;6.00;99.90;;;;;;5015396;28;20057;-73
2022/05/09 02:09:00;;;;;;;14.32;3.90;;;5.90;99.90;;;;;;5015580;28;20115;-73
2022/05/09 02:11:28;;;;;;;15.82;5.22;;;5.80;99.90;;;;;;5033682;28;20128;-73
2022/05/09 02:13:55;;;;;;;13.23;5.10;;;5.80;99.90;;;;;;5015460;28;20084;-73
2022/05/09 02:16:21;;;;;;;10.07;4.05;;;5.70;99.90;;;;;;5016037;28;20578;-73
2022/05/09 02:18:48;;;;;;;11.43;3.97;;;5.70;99.90;;;;;;5016145;28;20085;-73
2022/05/09 02:21:15;;;;;;;20.45;4.82;;;5.60;99.90;;;;;;5015302;28;20073;-73
2022/05/09 02:23:42;;;;;;;10.20;4.25;;;5.60;99.90;;;;;;5033411;28;20080;-73
2022/05/09 02:26:09;;;;;;;8.65;4.00;;;5.60;99.90;;;;;;5015853;28;20119;-72
2022/05/09 02:28:38;;;;;;;9.93;5.22;;;5.50;99.90;;;;;;5015080;28;20057;-72
2022/05/09 02:31:05;;;;;;;10.38;4.40;;;5.50;99.90;;;;;;5033537;28;20448;-72
2022/05/09 02:33:32;;;;;;;10.23;3.72;;;5.50;99.90;;;;;;5033527;28;20417;-73
2022/05/09 02:35:59;;;;;;;9.18;4.13;;;5.40;99.90;;;;;;5032467;28;20080;-73
2022/05/09 02:38:28;;;;;;;17.38;4.38;;;5.40;99.90;;;;;;5015438;28;20057;-73
2022/05/09 02:40:55;;;;;;;10.90;3.75;;;5.40;99.90;;;;;;5033593;28;20136;-74
2022/05/09 02:43:22;;;;;;;11.52;3.58;;;5.40;99.90;;;;;;5015114;28;20061;-74
2022/05/09 02:45:50;;;;;;;7.55;3.50;;;5.30;99.90;;;;;;5015726;28;20060;-74
2022/05/09 02:48:17;;;;;;;9.85;3.45;;;5.30;99.90;;;;;;5015739;28;20202;-74
2022/05/09 02:50:44;;;;;;;7.20;3.35;;;5.30;99.90;;;;;;5014357;28;20138;-74
2022/05/09 02:53:12;;;;;;;8.95;3.05;;;5.20;99.90;;;;;;5015996;28;20093;-75
2022/05/09 02:55:39;;;;;;;10.75;3.42;;;5.20;99.90;;;;;;5015732;28;20045;-73
2022/05/09 02:58:06;;;;;;;13.73;3.97;;;5.10;99.90;;;;;;5033461;28;20496;-74
2022/05/09 03:00:33;;;;;;;11.13;3.90;;;5.20;99.90;;;;;;5016153;28;20049;-73
2022/05/09 03:05:47;;;;;;;11.38;3.90;;;5.20;99.90;;;;;;5033112;28;20056;-73
2022/05/09 03:08:17;;;;;;;8.90;3.38;;;5.10;99.90;;;;;;5015340;28;20046;-73
2022/05/09 03:10:44;;;;;;;7.67;4.07;;;5.10;99.90;;;;;;5015055;28;20064;-73
2022/05/09 03:13:13;;;;;;;10.23;4.30;;;5.10;99.90;;;;;;5032678;28;20292;-71
2022/05/09 03:15:42;;;;;;;19.17;5.68;;;5.10;99.90;;;;;;5033057;28;20495;-73
2022/05/09 03:18:11;;;;;;;12.50;4.40;;;5.20;99.90;;;;;;5031802;28;20075;-73
2022/05/09 03:20:39;;;;;;;16.30;5.07;;;5.20;99.90;;;;;;5014991;28;20501;-73
2022/05/09 03:23:07;;;;;;;15.73;4.93;;;5.20;99.90;;;;;;5014791;28;20053;-73
2022/05/09 03:25:35;;;;;;;15.82;5.88;;;5.20;99.90;;;;;;5014329;28;20104;-73
2022/05/09 03:28:03;;;;;;;14.55;5.13;;;5.20;99.90;;;;;;5014912;28;20061;-73
2022/05/09 03:30:30;;;;;;;15.57;5.72;;;5.30;99.90;;;;;;5015336;28;20571;-73
2022/05/09 03:32:57;;;;;;;13.05;6.28;;;5.30;99.90;;;;;;5014033;28;20057;-73
2022/05/09 03:35:25;;;;;;;16.23;5.72;;;5.30;99.90;;;;;;5014775;28;20116;-73
2022/05/09 03:37:53;;;;;;;17.35;5.30;;;5.30;99.90;;;;;;5031155;28;20093;-73
2022/05/09 03:40:21;;;;;;;19.50;5.63;;;5.30;99.90;;;;;;5031574;28;20409;-73
2022/05/09 03:42:48;;;;;;;25.90;5.80;;;5.30;99.90;;;;;;5032306;28;20053;-73
2022/05/09 03:45:15;;;;;;;17.50;5.43;;;5.30;99.90;;;;;;5031626;28;20081;-72
2022/05/09 03:47:42;;;;;;;19.08;5.78;;;5.30;99.90;;;;;;5014721;28;20085;-73
2022/05/09 03:50:12;;;;;;;15.65;5.63;;;5.40;99.90;;;;;;5032105;28;20541;-74
2022/05/09 03:52:40;;;;;;;14.35;6.15;;;5.40;99.90;;;;;;5014033;28;20049;-73
2022/05/09 03:55:08;;;;;;;19.30;6.05;;;5.40;99.90;;;;;;5032642;28;20046;-74
2022/05/09 03:57:44;;;;;;;18.08;5.85;;;5.40;99.90;;;;;;5015121;28;20053;-75
2022/05/09 04:00:11;;;;;;;15.18;6.03;;;5.40;99.90;;;;;;5031885;28;20123;-73
2022/05/09 04:02:38;;;;;;;17.80;5.35;;;5.40;99.90;;;;;;5032656;28;20463;-73
2022/05/09 04:05:06;;;;;;;15.05;5.32;;;5.50;99.90;;;;;;5032267;28;20124;-73
2022/05/09 04:07:33;;;;;;;13.35;5.00;;;5.40;99.90;;;;;;5013828;28;20045;-73
2022/05/09 04:10:02;;;;;;;9.63;5.35;;;5.50;99.90;;;;;;5032270;28;20050;-73
2022/05/09 04:12:28;;;;;;;12.80;4.72;;;5.50;99.90;;;;;;5014478;28;20132;-72
2022/05/09 04:17:39;;;;;;;14.88;5.53;;;5.50;99.90;;;;;;5016093;28;20061;-73
2022/05/09 04:20:09;;;;;;;13.27;4.78;;;5.50;99.90;;;;;;5034766;28;20045;-73
2022/05/09 04:22:35;;;;;;;11.05;4.45;;;5.50;99.90;;;;;;5017827;28;20049;-73
2022/05/09 04:25:04;;;;;;;7.35;3.90;;;5.50;99.90;;;;;;5018066;28;20061;-73
2022/05/09 04:27:32;;;;;;;11.48;4.03;;;5.50;99.90;;;;;;5017150;28;20064;-72
2022/05/09 04:30:00;;;;;;;12.18;3.83;;;5.50;99.90;;;;;;5018109;28;20053;-73
2022/05/09 04:32:26;;;;;;;10.27;4.40;;;5.50;99.90;;;;;;5017622;28;20052;-73
2022/05/09 04:34:53;;;;;;;9.55;4.63;;;5.60;99.90;;;;;;5013126;28;20053;-74
2022/05/09 04:37:20;;;;;;;10.77;4.63;;;5.60;99.90;;;;;;5018429;28;20061;-74
2022/05/09 04:39:48;;;;;;;7.57;4.03;;;5.60;99.90;;;;;;5020308;28;20501;-74
2022/05/09 04:42:16;;;;;;;12.80;4.50;;;5.70;99.90;;;;;;5006348;28;20081;-74
2022/05/09 04:44:43;;;;;;;8.70;4.03;;;5.90;99.90;;;;;;5006391;28;20121;-72
2022/05/09 04:47:10;;;;;;;16.20;4.93;;;5.90;99.90;;;;;;5009228;28;20103;-74
2022/05/09 04:49:37;;;;;;;7.43;3.92;;;5.90;99.90;;;;;;5009413;28;20050;-72
2022/05/09 04:52:04;;;;;;;18.92;4.32;;;6.00;99.90;;;;;;5025090;28;20138;-74
2022/05/09 04:54:31;;;;;;;14.70;4.03;;;6.10;99.90;;;;;;5028960;28;20089;-73
2022/05/09 04:56:58;;;;;;;14.70;5.50;;;6.20;99.90;;;;;;5008490;28;20115;-73
2022/05/09 04:59:26;;;;;;;12.18;4.32;;;6.30;99.90;;;;;;5012687;28;20089;-74
2022/05/09 05:01:53;;;;;;;16.05;4.72;;;6.50;99.90;;;;;;5028311;28;20049;-74
2022/05/09 05:04:20;;;;;;;17.85;5.55;;;6.60;99.90;;;;;;5028511;28;20049;-73
2022/05/09 05:06:46;;;;;;;13.60;6.50;;;6.80;99.90;;;;;;5010202;28;20096;-74
2022/05/09 05:09:13;;;;;;;15.35;6.18;;;7.00;99.90;;;;;;5006410;28;20054;-75
2022/05/09 05:11:40;;;;;;;20.65;7.75;;;7.10;99.90;;;;;;5028117;28;20060;-74
2022/05/09 05:14:07;;;;;;;25.88;6.45;;;7.20;99.90;;;;;;5030280;28;20489;-73
2022/05/09 05:19:19;;;;;;;18.63;6.38;;;7.40;99.90;;;;;;5025521;28;20050;-73
2022/05/09 05:21:46;;;;;;;14.95;6.25;;;7.50;99.90;;;;;;5025734;28;20546;-74
2022/05/09 05:24:16;;;;;;;17.02;7.30;;;7.70;99.90;;;;;;5030266;28;20092;-74
2022/05/09 05:26:42;;;;;;;14.63;7.00;;;7.90;99.90;;;;;;5024591;28;20505;-72
2022/05/09 05:29:09;;;;;;;17.13;7.38;;;8.10;99.90;;;;;;5009940;28;20133;-74
2022/05/09 05:31:37;;;;;;;18.52;6.72;;;8.20;99.90;;;;;;5007657;28;20065;-74
2022/05/09 05:34:04;;;;;;;15.85;6.05;;;8.50;99.90;;;;;;5026413;28;20049;-72
2022/05/09 05:36:31;;;;;;;20.15;7.07;;;8.60;99.90;;;;;;5009327;28;20115;-73
2022/05/09 05:38:58;;;;;;;24.13;7.13;;;8.90;99.90;;;;;;5028405;28;20125;-74
2022/05/09 05:41:25;;;;;;;13.40;6.75;;;9.20;99.90;;;;;;5003705;28;20076;-73
2022/05/09 05:43:52;;;;;;;15.70;5.80;;;9.30;99.90;;;;;;5005135;28;20054;-72
2022/05/09 05:46:20;;;;;;;16.13;5.95;;;9.50;99.90;;;;;;5027255;28;20119;-74
2022/05/09 05:48:48;;;;;;;12.90;5.70;;;9.70;99.90;;;;;;5006667;28;20052;-73
2022/05/09 05:51:18;;;;;;;15.00;5.55;;;9.80;99.90;;;;;;5024071;28;20053;-74
2022/05/09 05:53:46;;;;;;;11.10;6.07;;;10.00;99.90;;;;;;5010047;28;20133;-75
2022/05/09 05:56:13;;;;;;;12.27;5.75;;;10.10;99.90;;;;;;5012841;28;20489;-73
2022/05/09 05:58:40;;;;;;;20.20;6.03;;;10.30;99.90;;;;;;5015673;28;20054;-75
2022/05/09 06:01:07;;;;;;;20.08;6.95;;;10.40;99.90;;;;;;4996888;28;20045;-75
2022/05/09 06:03:34;;;;;;;20.15;7.65;;;10.60;99.90;;;;;;5012688;28;20054;-74
2022/05/09 06:06:02;;;;;;;20.70;5.60;;;10.70;99.90;;;;;;5029325;28;20092;-73
2022/05/09 06:08:29;;;;;;;16.38;5.60;;;10.90;99.90;;;;;;5032874;28;20394;-74
2022/05/09 06:10:56;;;;;;;16.73;5.97;;;11.10;99.90;;;;;;5003030;28;20116;-74
2022/05/09 06:13:22;;;;;;;17.63;5.75;;;11.30;99.90;;;;;;5012471;28;20049;-73
2022/05/09 06:15:49;;;;;;;16.83;6.13;;;11.50;99.90;;;;;;4998815;28;20100;-75
2022/05/09 06:18:16;;;;;;;17.60;6.32;;;11.70;99.90;;;;;;5007611;28;20056;-73
2022/05/09 06:20:44;;;;;;;19.48;5.85;;;11.90;99.90;;;;;;5011564;28;20568;-74
2022/05/09 06:23:14;;;;;;;15.00;5.88;;;12.10;99.90;;;;;;5012951;28;20058;-73
2022/05/09 06:25:43;;;;;;;20.98;6.93;;;12.20;99.90;;;;;;4994359;28;20418;-75
2022/05/09 06:28:10;;;;;;;18.48;6.95;;;12.20;99.90;;;;;;5011776;28;20050;-74
2022/05/09 06:30:37;;;;;;;16.17;5.80;;;12.50;99.90;;;;;;5013604;28;20049;-75
2022/05/09 06:33:04;;;;;;;13.95;5.88;;;12.70;99.90;;;;;;5031845;28;20053;-75
2022/05/09 06:35:31;;;;;;;18.10;6.55;;;13.20;99.90;;;;;;5014086;28;20080;-74
2022/05/09 06:38:01;;;;;;;17.88;5.80;;;13.50;99.90;;;;;;4995879;28;20088;-73
2022/05/09 06:40:31;;;;;;;19.30;5.75;;;14.10;99.90;;;;;;4993994;28;20065;-74
2022/05/09 06:42:59;;;;;;;18.48;5.28;;;14.70;99.90;;;;;;4998905;28;20093;-73
2022/05/09 06:45:26;;;;;;;17.27;5.38;;;15.20;99.90;;;;;;4998832;28;20587;-72
2022/05/09 06:47:55;;;;;;;15.02;5.70;;;15.80;99.90;;;;;;5012217;28;20092;-73
2022/05/09 06:50:24;;;;;;;17.35;6.00;;;16.20;99.90;;;;;;5003325;28;20049;-74
2022/05/09 06:52:51;;;;;;;13.95;5.07;;;16.60;99.90;;;;;;5012653;28;20501;-73
2022/05/09 06:55:18;;;;;;;16.38;5.55;;;17.10;99.90;;;;;;5010218;28;20057;-75
2022/05/09 06:57:46;;;;;;;11.65;5.00;;;17.40;99.90;;;;;;5002922;28;20112;-74
2022/05/09 07:00:15;;;;;;;17.50;5.47;;;17.80;99.90;;;;;;5010523;28;20085;-75
2022/05/09 07:02:42;;;;;;;14.38;5.38;;;18.20;99.90;;;;;;4996031;28;20042;-74
2022/05/09 07:05:12;;;;;;;15.40;4.50;;;18.50;99.60;;;;;;4999404;28;20453;-73
2022/05/09 07:07:40;;;;;;;15.47;4.77;;;18.60;98.10;;;;;;5004310;28;20056;-75
2022/05/09 07:10:08;;;;;;;8.20;3.60;;;19.10;97.70;;;;;;5005925;28;20053;-75
2022/05/09 07:12:43;;;;;;;14.93;5.10;;;19.40;96.90;;;;;;4998427;28;20084;-72
2022/05/09 07:15:13;;;;;;;11.98;4.22;;;19.70;94.20;;;;;;5007194;28;20075;-74
2022/05/09 07:17:40;;;;;;;14.90;4.17;;;19.80;94.40;;;;;;5019085;28;20274;-73
2022/05/09 07:20:08;;;;;;;10.93;3.53;;;20.00;93.80;;;;;;5019367;28;20054;-72
2022/05/09 07:22:35;;;;;;;10.98;4.32;;;20.30;93.10;;;;;;5010706;28;20088;-76
2022/05/09 07:25:03;;;;;;;8.80;3.97;;;20.50;91.90;;;;;;4999733;28;20054;-76
2022/05/09 07:27:30;;;;;;;11.43;3.75;;;20.80;91.00;;;;;;5024919;28;20485;-74
2022/05/09 07:29:57;;;;;;;13.00;4.63;;;20.80;89.20;;;;;;5008236;28;20133;-74
2022/05/09 07:32:25;;;;;;;8.95;3.40;;;21.00;87.30;;;;;;5008615;28;20506;-73
2022/05/09 07:34:52;;;;;;;13.43;4.05;;;21.10;85.10;;;;;;5025729;28;20640;-73
2022/05/09 07:37:19;;;;;;;9.43;3.78;;;21.10;83.50;;;;;;5015148;28;20057;-75
2022/05/09 07:39:45;;;;;;;8.32;3.65;;;21.50;83.50;;;;;;5021142;28;20482;-75
2022/05/09 07:42:13;;;;;;;8.13;3.50;;;21.70;81.10;;;;;;5002917;28;20041;-75
2022/05/09 07:44:40;;;;;;;12.45;4.43;;;21.60;78.30;;;;;;5003155;28;20056;-75
2022/05/09 07:47:07;;;;;;;14.30;3.97;;;22.10;78.80;;;;;;5010382;28;20103;-74
2022/05/09 07:49:35;;;;;;;9.43;3.65;;;22.20;77.60;;;;;;5009099;28;20070;-74
2022/05/09 07:52:02;;;;;;;10.48;3.42;;;22.50;76.70;;;;;;5001591;28;20505;-74
2022/05/09 07:54:32;;;;;;;10.93;3.60;;;22.40;75.00;;;;;;5019449;28;20444;-76
2022/05/09 07:56:59;;;;;;;;;;;22.70;74.60;;;;;;5001454;28;20120;-74
2022/05/09 07:59:26;;;;;;;9.40;3.60;;;22.80;70.30;;;;;;5023205;28;19925;-73
2022/05/09 08:01:53;;;;;;;9.80;3.72;;;22.90;74.50;;;;;;5030617;28;20165;-73
2022/05/09 08:04:20;;;;;;;12.60;4.28;;;23.30;73.80;;;;;;5025556;28;20050;-75
2022/05/09 08:06:48;;;;;;;11.55;3.85;;;23.60;72.60;;;;;;4996916;28;20121;-74
2022/05/09 08:09:15;;;;;;;8.93;3.20;;;23.50;70.90;;;;;;5004521;28;20054;-74
2022/05/09 08:11:44;;;;;;;8.15;3.35;;;23.40;70.30;;;;;;5014889;28;20049;-74
2022/05/09 08:14:12;;;;;;;9.20;3.72;;;23.60;70.50;;;;;;5013489;28;20441;-74
2022/05/09 08:16:40;;;;;;;11.38;4.10;;;23.90;70.50;;;;;;5017941;28;20410;-74
2022/05/09 08:19:07;;;;;;;8.95;3.33;;;24.00;70.40;;;;;;5018461;28;20051;-76
2022/05/09 08:21:36;;;;;;;9.38;3.55;;;24.20;69.50;;;;;;5020395;28;20054;-74
2022/05/09 08:24:05;;;;;;;10.13;3.30;;;24.40;69.70;;;;;;5016086;28;20064;-75
2022/05/09 08:26:32;;;;;;;9.18;3.67;;;24.60;68.20;;;;;;5015458;28;20397;-76
2022/05/09 08:28:59;;;;;;;10.90;3.50;;;24.60;68.00;;;;;;5012044;28;20073;-75
2022/05/09 08:31:25;;;;;;;11.13;3.30;;;24.80;66.60;;;;;;5011554;28;20046;-75
2022/05/09 08:33:56;;;;;;;7.45;3.08;;;24.90;65.40;;;;;;5026065;28;20096;-75
2022/05/09 08:39:09;;;;;;;7.38;3.22;;;25.40;63.70;;;;;;5031524;28;20198;-75
2022/05/09 08:41:45;;;;;;;10.95;2.83;;;25.40;63.10;;;;;;5013900;28;20104;-75
2022/05/09 08:44:21;;;;;;;9.88;4.05;;;25.40;63.70;;;;;;5019396;28;20115;-76
2022/05/09 08:46:59;;;;;;;17.02;3.30;;;25.40;61.80;;;;;;5033994;28;20057;-75
2022/05/09 08:49:40;;;;;;;11.98;3.95;;;25.70;61.30;;;;;;5004760;28;20493;-75
2022/05/09 08:52:17;;;;;;;11.02;3.08;;;25.90;60.10;;;;;;5025288;28;20080;-75
2022/05/09 08:54:46;;;;;;;6.70;2.75;;;26.00;60.10;;;;;;5031516;28;20100;-75
2022/05/09 08:57:17;;;;;;;5.70;2.58;;;26.00;60.00;;;;;;5026933;28;20111;-75
2022/05/09 08:59:49;;;;;;;9.95;2.90;;;26.20;58.80;;;;;;5002686;28;20077;-76
2022/05/09 09:02:27;;;;;;;7.05;2.78;;;26.30;56.90;;;;;;5010632;28;20141;-75
2022/05/09 09:04:58;;;;;;;13.68;3.63;;;26.30;56.80;;;;;;5002092;28;20556;-75
2022/05/09 09:07:52;;;;;;;5.85;2.63;;;26.50;56.60;;;;;;5012621;28;20493;-75
2022/05/09 09:10:26;;;;;;;9.35;3.20;;;26.70;53.40;;;;;;5025546;28;20571;-76
2022/05/09 09:13:06;;;;;;;14.73;3.22;;;26.60;54.20;;;;;;5002600;28;20132;-75
2022/05/09 09:15:43;;;;;;;10.73;3.40;;;26.90;54.60;;;;;;5020604;28;20106;-77
2022/05/09 09:18:26;;;;;;;9.10;2.60;;;27.20;53.70;;;;;;5026780;28;20123;-75
2022/05/09 09:21:00;;;;;;;6.95;2.72;;;27.20;52.00;;;;;;5016059;28;20428;-76
2022/05/09 09:23:40;;;;;;;6.78;2.33;;;27.20;51.70;;;;;;5021439;28;20398;-76
2022/05/09 09:26:20;;;;;;;8.55;2.05;;;27.10;51.40;;;;;;4995984;28;20048;-75
2022/05/09 09:28:51;;;;;;;8.18;2.40;;;27.50;51.70;;;;;;5012191;28;20049;-76
2022/05/09 09:31:24;;;;;;;8.10;2.38;;;27.50;51.40;;;;;;5030272;28;20104;-77
2022/05/09 09:33:56;;;;;;;10.35;2.60;;;27.50;50.20;;;;;;5025123;28;20338;-75
2022/05/09 09:36:26;;;;;;;6.93;2.60;;;27.70;50.30;;;;;;5007457;28;20069;-76
2022/05/09 09:38:58;;;;;;;7.40;2.65;;;28.00;51.90;;;;;;5011002;28;20149;-75
2022/05/09 09:41:30;;;;;;;5.40;2.40;;;28.10;51.30;;;;;;5018474;28;20057;-76
2022/05/09 09:44:07;;;;;;;11.85;2.88;;;27.70;50.00;;;;;;5029429;28;20099;-75
2022/05/09 09:46:35;;;;;;;7.68;2.30;;;26.90;50.70;;;;;;4998274;28;20086;-75
2022/05/09 09:49:07;;;;;;;4.70;2.10;;;26.80;50.80;;;;;;5018439;28;20045;-75
2022/05/09 09:51:45;;;;;;;7.65;2.35;;;26.80;50.30;;;;;;5033721;28;20131;-77
2022/05/09 09:54:12;;;;;;;8.32;2.50;;;27.10;49.80;;;;;;5015843;28;20099;-77
2022/05/09 09:56:42;;;;;;;8.10;2.10;;;27.30;50.00;;;;;;5015901;28;20088;-77
2022/05/09 09:59:21;;;;;;;4.00;2.20;;;27.60;48.70;;;;;;5015507;28;20057;-77
2022/05/09 10:02:04;;;;;;;6.55;2.10;;;28.00;46.90;;;;;;5016662;28;20059;-76
2022/05/09 10:04:30;;;;;;;11.13;2.30;;;27.80;47.90;;;;;;5034393;28;20551;-76
2022/05/09 10:07:01;;;;;;;6.00;1.88;;;28.00;47.40;;;;;;5016606;28;20566;-76
2022/05/09 10:09:30;;;;;;;7.57;2.33;;;28.10;45.80;;;;;;5034035;28;20049;-75
2022/05/09 10:12:26;;;;;;;7.22;2.33;;;27.60;46.50;;;;;;5015779;28;20072;-77
2022/05/09 10:14:53;;;;;;;6.70;2.58;;;27.70;46.10;;;;;;5016054;28;20053;-77
2022/05/09 10:17:27;;;;;;;10.10;2.38;;;27.90;47.30;;;;;;4992665;28;20160;-75
2022/05/09 10:19:55;;;;;;;8.18;2.20;;;27.90;47.20;;;;;;5006767;28;20515;-75
2022/05/09 10:25:16;;;;;;;5.22;1.85;;;28.20;47.40;;;;;;4996297;28;20053;-75
2022/05/09 10:27:45;;;;;;;5.60;2.20;;;28.40;47.30;;;;;;4995755;28;20054;-75
2022/05/09 10:30:31;;;;;;;6.20;2.03;;;28.60;46.70;;;;;;5014140;28;20053;-75
2022/05/09 10:33:02;;;;;;;8.18;1.92;;;28.60;45.40;;;;;;5013134;28;20406;-75
2022/05/09 10:35:34;;;;;;;7.15;2.20;;;28.50;46.20;;;;;;5013879;28;20053;-75
2022/05/09 10:38:04;;;;;;;5.88;2.40;;;28.40;46.70;;;;;;4996415;28;20054;-75
2022/05/09 10:40:37;;;;;;;8.52;2.55;;;28.60;46.80;;;;;;4995465;28;20054;-76
2022/05/09 10:43:09;;;;;;;7.47;2.70;;;28.70;46.20;;;;;;5012298;28;20108;-75
2022/05/09 10:45:41;;;;;;;6.65;2.22;;;28.60;45.80;;;;;;4996389;28;20493;-75
2022/05/09 10:48:13;;;;;;;6.80;2.30;;;28.50;46.30;;;;;;4995056;28;20049;-75
2022/05/09 10:50:49;;;;;;;6.55;2.25;;;28.90;46.20;;;;;;5012293;28;20049;-75
2022/05/09 10:53:23;;;;;;;6.82;2.38;;;28.90;45.80;;;;;;5015100;28;20573;-76
2022/05/09 10:56:03;;;;;;;7.30;2.22;;;28.80;45.50;;;;;;5015256;28;20057;-75
2022/05/09 10:58:37;;;;;;;5.50;2.13;;;28.60;45.70;;;;;;5015446;28;20053;-75
2022/05/09 11:01:09;;;;;;;8.98;2.30;;;28.40;45.90;;;;;;5014981;28;20046;-75
2022/05/09 11:03:37;;;;;;;8.23;2.50;;;28.70;46.10;;;;;;5033674;28;20042;-74
2022/05/09 11:06:26;;;;;;;6.20;2.15;;;28.90;46.40;;;;;;5035309;28;20417;-74
2022/05/09 11:09:10;;;;;;;6.72;2.63;;;29.20;45.70;;;;;;5015716;28;20057;-75
2022/05/09 11:11:50;;;;;;;7.30;2.08;;;29.10;46.00;;;;;;5033614;28;20471;-75
2022/05/09 11:14:26;;;;;;;9.50;2.47;;;29.20;46.00;;;;;;5015750;28;20053;-76
2022/05/09 11:17:22;;;;;;;7.70;2.40;;;29.30;46.50;;;;;;5033620;28;20116;-76
2022/05/09 11:20:02;;;;;;;7.10;2.15;;;29.30;45.40;;;;;;5015140;28;20057;-76
2022/05/09 11:22:35;;;;;;;8.38;2.63;;;29.10;46.10;;;;;;5032087;28;20050;-75
2022/05/09 11:25:27;;;;;;;7.60;2.17;;;29.10;46.30;;;;;;5032904;28;20107;-75
2022/05/09 11:28:09;;;;;;;9.25;2.25;;;28.90;46.30;;;;;;5018937;28;20120;-75
2022/05/09 11:30:40;;;;;;;7.40;2.83;;;29.40;47.50;;;;;;5018652;28;20053;-74
2022/05/09 11:33:36;;;;;;;7.13;2.22;;;29.90;47.00;;;;;;5036587;28;20412;-76
2022/05/09 11:36:10;;;;;;;9.13;3.20;;;30.30;46.10;;;;;;5036463;28;20053;-76
2022/05/09 11:38:52;;;;;;;7.63;2.65;;;29.90;46.60;;;;;;5019301;28;20136;-76
2022/05/09 11:41:36;;;;;;;6.20;2.72;;;30.30;45.80;;;;;;5036511;28;20049;-76
2022/05/09 11:44:15;;;;;;;7.22;2.50;;;29.50;45.80;;;;;;5018412;28;20053;-76
2022/05/09 11:47:14;;;;;;;9.48;3.20;;;28.80;47.50;;;;;;5019197;28;20089;-75
2022/05/09 11:50:03;;;;;;;8.00;2.05;;;29.20;46.30;;;;;;5012896;28;20501;-75
2022/05/09 11:52:36;;;;;;;5.73;2.20;;;29.40;45.80;;;;;;5016087;28;20136;-75
2022/05/09 11:55:07;;;;;;;5.45;2.10;;;29.60;46.80;;;;;;5016434;28;20324;-76
2022/05/09 11:57:38;;;;;;;7.63;2.40;;;29.90;46.30;;;;;;4998477;28;20062;-76
2022/05/09 12:00:09;;;;;;;9.98;2.28;;;30.10;45.80;;;;;;5016594;28;20052;-76
2022/05/09 12:02:50;;;;;;;4.78;1.63;;;30.10;45.70;;;;;;5016521;28;20386;-76
2022/05/09 12:05:49;;;;;;;8.10;2.35;;;30.30;45.50;;;;;;5015338;28;20497;-77
2022/05/09 12:08:17;;;;;;;7.65;2.22;;;30.00;45.10;;;;;;4998469;28;20085;-75
2022/05/09 12:10:49;;;;;;;6.03;2.20;;;30.00;45.90;;;;;;4997737;28;20112;-74
2022/05/09 12:13:38;;;;;;;7.43;2.40;;;30.00;46.00;;;;;;4994152;28;20464;-76
2022/05/09 12:16:05;;;;;;;9.30;2.00;;;30.40;46.40;;;;;;4998242;28;20056;-76
2022/05/09 12:18:33;;;;;;;7.03;2.03;;;30.70;45.80;;;;;;5015254;28;20050;-75
2022/05/09 12:21:21;;;;;;;18.27;1.93;;;30.70;45.40;;;;;;5016115;28;20054;-75
2022/05/09 12:24:09;;;;;;;11.43;2.70;;;30.50;44.20;;;;;;5000220;28;20104;-75
2022/05/09 12:26:39;;;;;;;5.50;2.10;;;30.40;45.10;;;;;;4995859;28;20050;-73
2022/05/09 12:29:45;;;;;;;4.55;1.55;;;30.20;45.30;;;;;;4995989;28;20494;-75
2022/05/09 12:32:12;;;;;;;8.25;2.25;;;30.10;45.20;;;;;;4995860;28;20054;-74
2022/05/09 12:34:40;;;;;;;5.70;2.00;;;30.00;45.60;;;;;;5014950;28;20068;-75
2022/05/09 12:37:11;;;;;;;5.22;1.65;;;29.70;45.70;;;;;;5014143;28;20050;-74
2022/05/09 12:39:45;;;;;;;3.50;1.65;;;29.80;46.00;;;;;;5014247;28;20506;-75
2022/05/09 12:42:26;;;;;;;6.65;1.80;;;30.20;45.30;;;;;;5009709;28;20105;-74
2022/05/09 12:44:56;;;;;;;5.55;2.08;;;30.30;45.30;;;;;;5004333;28;20097;-73
2022/05/09 12:47:27;;;;;;;5.78;1.60;;;30.60;45.30;;;;;;4995582;28;20108;-75
2022/05/09 12:49:58;;;;;;;6.05;2.00;;;30.80;45.30;;;;;;4997130;28;20580;-74
2022/05/09 12:52:31;;;;;;;5.75;1.73;;;30.80;46.00;;;;;;5004952;28;20100;-74
2022/05/09 12:57:44;;;;;;;5.78;2.22;;;31.40;44.90;;;;;;4998255;28;20127;-76
2022/05/09 13:00:15;;;;;;;7.75;2.08;;;31.70;44.60;;;;;;4996288;28;20074;-74
2022/05/09 13:02:44;;;;;;;5.43;1.58;;;31.80;44.50;;;;;;5009164;28;20085;-74
2022/05/09 13:05:14;;;;;;;4.88;1.88;;;31.90;44.80;;;;;;5004618;28;20050;-75
2022/05/09 13:07:59;;;;;;;7.07;1.80;;;32.20;45.30;;;;;;5012437;28;20049;-74
2022/05/09 13:10:27;;;;;;;4.68;1.70;;;32.50;44.20;;;;;;4992763;28;20081;-74
2022/05/09 13:12:58;;;;;;;4.13;1.60;;;32.80;43.90;;;;;;4997777;28;20105;-73
2022/05/09 13:15:27;;;;;;;7.68;1.83;;;32.50;44.10;;;;;;4999751;28;20265;-75
2022/05/09 13:17:58;;;;;;;8.55;1.88;;;32.30;43.70;;;;;;5006323;28;20121;-74
2022/05/09 13:20:28;;;;;;;3.85;1.70;;;32.40;43.60;;;;;;4996656;28;20045;-75
2022/05/09 13:23:00;;;;;;;7.40;1.52;;;32.50;43.70;;;;;;5009250;28;20133;-74